Αναφορές METAR από Ελληνικά Αεροδρόμια

Σε αυτή τη σελίδα, μπορείτε να παρακολουθείτε τις αναφορές METAR που προέρχονται από τα κυριότερα αεροδρόμια της Ελλάδας. Το περιεχόμενο αποκωδικοποιείται, οπτικοποιείται και γίνεται κατανοητό από τον καθένα με τη χρήση του όμορφου δίγλωσσου γραφικού περιβάλλοντος του meteothes.gr!

Η αρχική κωδικοποιημένη αναφορά, συμπεριλαμβάνεται επίσης στο κάτω μέρος. Σε όποια καθεστερεί η ενημέρωση, το προειδοποιητικό μήνυμα "Μη ενημερωμένο METAR!" εμφανίζεται στο πάνω μέρος της με κόκκινα γράμματα.

Εχουν προστεθεί επίσης δύο αεροδρόμια από γειτονικές χώρες, την Οχρίδα(ΠΓΔΜ) και την Σόφια(Βουλγαρία) για να ελέγχουμε την εξέλιξη των ψυχρών εισβολών από τα Βόρεια!

LGTS - Thessaloniki/Makedonia-Elev 7m
Απόσταση από meteothes.gr: Ν 13km
Ενημερώθηκε: 21/01/2020 18:20
Αίθριος
Αίθριος
 Ανεμος από ΒΒΔ
Ανεμος: ΒΒΔ 19 km/h
Θερμοκρασία: 7°C
Αίσθηση Ψύχρας: 4°C
Σημ. Δρόσου: -3°C
Υγρασία: 49%
Βαρόμετρο: 1037 hPa
Συνθήκες: Αίθριος
Ορατότητα: πάνω από 10 km
2020/01/21 16:20 LGTS 211620Z 33010KT CAVOK 07/M03 Q1037 NOSIG
LGAV - Athens/Elef. Venizelos-Elev 94m
Απόσταση από meteothes.gr: ΝΝΑ 312km
Ενημερώθηκε: 21/01/2020 18:20
Μερικώς νεφελώδης
Μερικώς νεφελώδης
 Ανεμος από ΔΒΔ
Ανεμος: ΔΒΔ 7 km/h
Θερμοκρασία: 7°C
Αίσθηση Ψύχρας: 6°C
Σημ. Δρόσου: 0°C
Υγρασία: 61%
Βαρόμετρο: 1036 hPa
Νέφωση: Μερικώς νεφελώδης
Ορατότητα: 10 km
Λεπτομέρειες Νεφών: Μερικώς νεφελώδης 914 m
2020/01/21 16:20 LGAV 211620Z 30004KT 9999 SCT030 07/00 Q1036 NOSIG
 
LGAL - Alexandroupolis-Elev 3m
Απόσταση από meteothes.gr: Α 251km
Ενημερώθηκε: 21/01/2020 18:20
Αίθριος
Αίθριος
 Ανεμος από άπνοια
Ανεμος: άπνοια
Θερμοκρασία: 3°C
Σημ. Δρόσου: -2°C
Υγρασία: 70%
Βαρόμετρο: 1038 hPa
Συνθήκες: Αίθριος
Ορατότητα: πάνω από 10 km
2020/01/21 16:20 LGAL 211620Z 00000KT CAVOK 03/M02 Q1038
LGKV - Kavala/Crysoupolis-Elev 5m
Απόσταση από meteothes.gr: ΑΒΑ 144km
Ενημερώθηκε: 21/01/2020 18:20
Αίθριος
Αίθριος
 Ανεμος από ΑΒΑ
Ανεμος: ΑΒΑ 7 km/h
Θερμοκρασία: 6°C
Αίσθηση Ψύχρας: 4°C
Σημ. Δρόσου: 0°C
Υγρασία: 66%
Βαρόμετρο: 1037 hPa
Συνθήκες: Αίθριος
Ορατότητα: πάνω από 10 km
2020/01/21 16:20 LGKV 211620Z 07004KT CAVOK 06/M00 Q1037
 
LGSK - Skiathos Island-Elev 15m
Απόσταση από meteothes.gr: ΝΝΑ 168km
Ενημερώθηκε: 21/01/2020 15:50
ΜΗ Ενημερωμένο METAR!
Μερικώς νεφελώδης
Μερικώς νεφελώδης
 Ανεμος από ΒΒΔ
Ανεμος: ΒΒΔ 7 km/h
Θερμοκρασία: 9°C
Αίσθηση Ψύχρας: 8°C
Σημ. Δρόσου: 2°C
Υγρασία: 62%
Βαρόμετρο: 1038 hPa
Νέφωση: Μερικώς νεφελώδης
Ορατότητα: 10 km
Λεπτομέρειες Νεφών: Μερικώς νεφελώδης 914 m
2020/01/21 13:50 LGSK 211350Z 34004KT 9999 SCT030 09/02 Q1038
LGLM - Limnos Island-Elev 5m
Απόσταση από meteothes.gr: ΑΝΑ 210km
Ενημερώθηκε: 21/01/2020 18:20
Διάσπαρτα Nέφη
Διάσπαρτα Nέφη
 Ανεμος από άπνοια
Ανεμος: άπνοια
Θερμοκρασία: 5°C
Σημ. Δρόσου: 2°C
Υγρασία: 81%
Βαρόμετρο: 1037 hPa
Νέφωση: Διάσπαρτα Nέφη
Ορατότητα: 10 km
Λεπτομέρειες Νεφών: Διάσπαρτα Nέφη 610 m
2020/01/21 16:20 LGLM 211620Z 00000KT 9999 FEW020 05/02 Q1037
 
LGMT - Mitilini Island-Elev 17m
Απόσταση από meteothes.gr: ΑΝΑ 358km
Ενημερώθηκε: 21/01/2020 18:20
Μερικώς νεφελώδης
Μερικώς νεφελώδης
 Ανεμος από Β
Ανεμος: Β 22 km/h
Θερμοκρασία: 6°C
Αίσθηση Ψύχρας: 2°C
Σημ. Δρόσου: 2°C
Υγρασία: 76%
Βαρόμετρο: 1035 hPa
Νέφωση: Μερικώς νεφελώδης
Ορατότητα: 10 km
Λεπτομέρειες Νεφών: Μερικώς νεφελώδης 762 m
2020/01/21 16:20 LGMT 211620Z 36012KT 320V040 9999 SCT025 06/02 Q1035
LGSY - Skiros Island-Elev 15m
Απόσταση από meteothes.gr: ΝΑ 227km
Ενημερώθηκε: 21/01/2020 17:50
Μερικώς νεφελώδης
Μερικώς νεφελώδης
 Ανεμος από ΒΒΔ
Ανεμος: ΒΒΔ 19 km/h
Θερμοκρασία: 9°C
Αίσθηση Ψύχρας: 6°C
Σημ. Δρόσου: 0°C
Υγρασία: 54%
Βαρόμετρο: 1037 hPa
Νέφωση: Μερικώς νεφελώδης
Ορατότητα: 10 km
Λεπτομέρειες Νεφών: Μερικώς νεφελώδης 610 m
2020/01/21 15:50 LGSY 211550Z 33010KT 9999 SCT020 09/00 Q1037 BLU
 
LGKZ - Kozani-Elev 628m
Απόσταση από meteothes.gr: ΔΝΔ 102km
Ενημερώθηκε: 21/01/2020 17:50
Αίθριος
Αίθριος
 Ανεμος από άπνοια
Ανεμος: άπνοια
Θερμοκρασία: 1°C
Σημ. Δρόσου: -8°C
Υγρασία: 51%
Βαρόμετρο: 1036 hPa
Συνθήκες: Αίθριος
Ορατότητα: πάνω από 10 km
2020/01/21 15:50 LGKZ 211550Z 00000KT CAVOK 01/M08 Q1036
LGIO - Ioannina-Elev 476m
Απόσταση από meteothes.gr: ΔΝΔ 209km
Ενημερώθηκε: 21/01/2020 17:50
Αίθριος
Αίθριος
 Ανεμος από μεταβλητός
Ανεμος: μεταβλητός 4 km/h
Θερμοκρασία: 6°C
Σημ. Δρόσου: -3°C
Υγρασία: 53%
Βαρόμετρο: 1034 hPa
Συνθήκες: Αίθριος
Ορατότητα: πάνω από 10 km
2020/01/21 15:50 LGIO 211550Z VRB02KT CAVOK 06/M03 Q1034
 
LGZA - Zakinthos-Elev 3m
Απόσταση από meteothes.gr: ΝΝΔ 367km
Ενημερώθηκε: 21/01/2020 17:50
Αίθριος
Αίθριος
 Ανεμος από Δ
Ανεμος: Δ 7 km/h
Θερμοκρασία: 10°C
Αίσθηση Ψύχρας: 9°C
Σημ. Δρόσου: 3°C
Υγρασία: 62%
Βαρόμετρο: 1035 hPa
Συνθήκες: Αίθριος
Ορατότητα: πάνω από 10 km
2020/01/21 15:50 LGZA 211550Z 27004KT CAVOK 10/03 Q1035
LGKR - Corfu Island-Elev 2m
Απόσταση από meteothes.gr: ΔΝΔ 282km
Ενημερώθηκε: 21/01/2020 18:20
Διάσπαρτα Nέφη
Διάσπαρτα Nέφη
 Ανεμος από άπνοια
Ανεμος: άπνοια
Θερμοκρασία: 12°C
Σημ. Δρόσου: 7°C
Υγρασία: 72%
Βαρόμετρο: 1035 hPa
Νέφωση: Διάσπαρτα Nέφη
Ορατότητα: 10 km
Λεπτομέρειες Νεφών: Διάσπαρτα Nέφη 549 m
2020/01/21 16:20 LGKR 211620Z 00000KT 9999 FEW018 12/07 Q1035 NOSIG
 
LGSO - Syros Island-Elev 72m
Απόσταση από meteothes.gr: ΝΝΑ 397km
Ενημερώθηκε: 21/01/2020 18:20
Ασθενής βροχή
Ασθενής βροχή
 Ανεμος από Β
Ανεμος: Β 44 km/h, Ριπή: 65 km/h
Θερμοκρασία: 8°C
Αίσθηση Ψύχρας: 3°C
Σημ. Δρόσου: 2°C
Υγρασία: 66%
Βαρόμετρο: 1033 hPa
Συνθήκες: Ασθενής βροχή
2020/01/21 16:20 LGSO 211620Z AUTO 36024G35KT 310V020 //// -RA ////// 08/02 Q1033 RE//
LGMK - Mikonos Island-Elev 123m
Απόσταση από meteothes.gr: ΝΝΑ 412km
Ενημερώθηκε: 21/01/2020 18:20
Μερικώς νεφελώδης
Μερικώς νεφελώδης
 Ανεμος από Β
Ανεμος: Β 46 km/h, Ριπή: 69 km/h
Θερμοκρασία: 8°C
Αίσθηση Ψύχρας: 3°C
Σημ. Δρόσου: 2°C
Υγρασία: 66%
Βαρόμετρο: 1033 hPa
Νέφωση: Μερικώς νεφελώδης
Ορατότητα: 10 km
Λεπτομέρειες Νεφών: Διάσπαρτα Nέφη 366 m
Μερικώς νεφελώδης 762 m
2020/01/21 16:20 LGMK 211620Z 36025G37KT 9999 FEW012 SCT025 08/02 Q1033
 
LGSR - Santorini Island-Elev 40m
Απόσταση από meteothes.gr: ΝΝΑ 520km
Ενημερώθηκε: 21/01/2020 18:20
Κυρίως νεφελώδης
Κυρίως νεφελώδης
 Ανεμος από Β
Ανεμος: Β 35 km/h
Θερμοκρασία: 10°C
Αίσθηση Ψύχρας: 6°C
Σημ. Δρόσου: 4°C
Υγρασία: 67%
Βαρόμετρο: 1032 hPa
Νέφωση: Κυρίως νεφελώδης
Ορατότητα: 10 km
Λεπτομέρειες Νεφών: Κυρίως νεφελώδης 762 m
2020/01/21 16:20 LGSR 211620Z 36019KT 9999 BKN025 10/04 Q1032
LGKL - Kalamata-Elev 8m
Απόσταση από meteothes.gr: Ν 405km
Ενημερώθηκε: 21/01/2020 18:20
Διάσπαρτα Nέφη
Διάσπαρτα Nέφη
 Ανεμος από άπνοια
Ανεμος: άπνοια
Θερμοκρασία: 8°C
Σημ. Δρόσου: 2°C
Υγρασία: 66%
Βαρόμετρο: 1034 hPa
Νέφωση: Διάσπαρτα Nέφη
Ορατότητα: 10 km
Λεπτομέρειες Νεφών: Διάσπαρτα Nέφη 2438 m
2020/01/21 16:20 LGKL 211620Z 00000KT 9999 FEW080 08/02 Q1034
 
LGIR - Iraklion/Crete-Elev 5m
Απόσταση από meteothes.gr: ΝΝΑ 622km
Ενημερώθηκε: 21/01/2020 18:20
Κυρίως νεφελώδης
Κυρίως νεφελώδης
 Ανεμος από ΒΔ
Ανεμος: ΒΔ 35 km/h
Θερμοκρασία: 10°C
Αίσθηση Ψύχρας: 6°C
Σημ. Δρόσου: 3°C
Υγρασία: 62%
Βαρόμετρο: 1033 hPa
Νέφωση: Κυρίως νεφελώδης
Ορατότητα: 10 km
Λεπτομέρειες Νεφών: Διάσπαρτα Nέφη 610 m
Κυρίως νεφελώδης 914 m
2020/01/21 16:20 LGIR 211620Z 31019KT 9999 FEW020 BKN030 10/03 Q1033 NOSIG
LGRP - Rhodes-Elev 5m
Απόσταση από meteothes.gr: ΝΑ 649km
Ενημερώθηκε: 21/01/2020 18:20
Διάσπαρτα Nέφη
Διάσπαρτα Nέφη
 Ανεμος από ΒΔ
Ανεμος: ΒΔ 26 km/h
Θερμοκρασία: 12°C
Σημ. Δρόσου: 1°C
Υγρασία: 47%
Βαρόμετρο: 1027 hPa
Νέφωση: Διάσπαρτα Nέφη
Ορατότητα: 10 km
Λεπτομέρειες Νεφών: Διάσπαρτα Nέφη 549 m
2020/01/21 16:20 LGRP 211620Z 31014KT 9999 FEW018 12/01 Q1027 NOSIG
 
LWOH - Ohrid/FYROM-Elev 761m
Απόσταση από meteothes.gr: ΔΒΔ 188km
Ενημερώθηκε: 21/01/2020 18:00
Αίθριος
Αίθριος
 Ανεμος από ΒΑ
Ανεμος: ΒΑ 2 km/h
Θερμοκρασία: 0°C
Σημ. Δρόσου: -5°C
Υγρασία: 69%
Βαρόμετρο: 1037 hPa
Συνθήκες: Αίθριος
Ορατότητα: πάνω από 10 km
2020/01/21 16:00 LWOH 211600Z 05001KT CAVOK 00/M05 Q1037
LBSF - Sofia/Bulgaria-Elev 595m
Απόσταση από meteothes.gr: Β 227km
Ενημερώθηκε: 21/01/2020 18:00
Μερικώς νεφελώδης
Μερικώς νεφελώδης
 Ανεμος από Δ
Ανεμος: Δ 17 km/h
Θερμοκρασία: -2°C
Αίσθηση Ψύχρας: -7°C
Σημ. Δρόσου: -6°C
Υγρασία: 74%
Βαρόμετρο: 1038 hPa
Νέφωση: Μερικώς νεφελώδης
Ορατότητα: 8 km
2020/01/21 16:00 LBSF 211600Z 28009KT 8000 NSC M02/M06 Q1038 NOSIG

(*) Μερικές αναφορές παρουσιάζουν λιγότερα στοιχεία γιατί οι αρχικές είναι ελλιπείς ή έχουν λάθος μορφοποίηση!

Please disable your adblock and script blockers to view this page